Time;durP1;ratioP1;P1;durP2;ratioP2;P2;SDS_P1;SDS_P2;PMS_P1;PMS_P2;Temp;Humidity;BMP_temperature;BMP_pressure;BME280_temperature;BME280_humidity;BME280_pressure;Samples;Min_cycle;Max_cycle;Signal;HPM_P1;HPM_P2
2021/11/12 00:04:11;;;;;;;;;;;15.80;41.10;;;;;;8373687;28;19924;-49
2021/11/12 00:12:34;;;;;;;;;;;15.80;41.10;;;;;;8366447;28;20016;-48
2021/11/12 00:16:35;;;;;;;;;;;15.80;41.10;;;;;;8366670;28;20328;-54
2021/11/12 00:20:36;;;;;;;;;;;15.80;41.10;;;;;;8366766;28;19924;-54
2021/11/12 00:24:37;;;;;;;;;;;15.80;41.10;;;;;;8366217;28;19916;-50
2021/11/12 00:28:47;;;;;;;;;;;15.80;41.20;;;;;;8366348;28;20362;-50
2021/11/12 00:41:22;;;;;;;;;;;15.80;41.10;;;;;;8368250;28;20008;-49
2021/11/12 00:45:25;;;;;;;;;;;15.80;41.20;;;;;;8365985;28;19921;-50
2021/11/12 00:49:28;;;;;;;;;;;15.80;41.20;;;;;;8365722;28;20407;-49
2021/11/12 00:57:29;;;;;;;;;;;15.80;41.70;;;;;;8365828;28;19925;-50
2021/11/12 01:01:32;;;;;;;;;;;15.80;41.20;;;;;;8365589;28;20003;-48
2021/11/12 01:05:33;;;;;;;;;;;15.80;41.20;;;;;;8364987;28;20373;-49
2021/11/12 01:09:33;;;;;;;;;;;15.80;41.20;;;;;;8364886;28;19920;-49
2021/11/12 01:13:35;;;;;;;;;;;15.80;41.20;;;;;;8364779;28;19916;-47
2021/11/12 01:17:36;;;;;;;;;;;15.80;41.20;;;;;;8364372;28;20373;-47
2021/11/12 01:21:37;;;;;;;;;;;15.80;41.20;;;;;;8365243;28;19925;-49
2021/11/12 01:25:37;;;;;;;;;;;15.80;41.20;;;;;;8364556;28;20016;-48
2021/11/12 01:29:38;;;;;;;;;;;15.80;41.20;;;;;;8364058;28;19916;-49
2021/11/12 01:33:40;;;;;;;;;;;15.80;41.30;;;;;;8364295;28;19924;-48
2021/11/12 01:37:44;;;;;;;;;;;15.80;41.20;;;;;;8364510;28;20000;-49
2021/11/12 01:41:49;;;;;;;;;;;15.70;41.20;;;;;;8363656;28;19964;-52
2021/11/12 01:50:17;;;;;;;;;;;15.70;41.20;;;;;;8342663;28;20365;-49
2021/11/12 02:02:25;;;;;;;;;;;15.70;41.20;;;;;;8365027;28;20364;-48
2021/11/12 02:06:26;;;;;;;;;;;15.70;41.20;;;;;;8364192;28;19921;-48
2021/11/12 02:10:26;;;;;;;;;;;15.80;41.30;;;;;;8363654;28;20095;-49
2021/11/12 02:14:28;;;;;;;;;;;15.80;41.20;;;;;;8363445;28;19969;-50
2021/11/12 02:18:32;;;;;;;;;;;15.80;41.20;;;;;;8363547;28;19917;-49
2021/11/12 02:22:33;;;;;;;;;;;15.80;41.10;;;;;;8363802;28;19959;-49
2021/11/12 02:26:38;;;;;;;;;;;15.80;41.10;;;;;;8363274;28;19924;-49
2021/11/12 02:30:40;;;;;;;;;;;15.90;41.10;;;;;;8363171;28;20282;-48
2021/11/12 02:34:40;;;;;;;;;;;15.90;41.60;;;;;;8363198;28;19917;-49
2021/11/12 02:38:43;;;;;;;;;;;15.90;41.00;;;;;;8362791;28;19924;-48
2021/11/12 02:42:43;;;;;;;;;;;15.90;41.10;;;;;;8363047;28;20286;-49
2021/11/12 02:46:44;;;;;;;;;;;15.90;41.00;;;;;;8363310;28;19972;-50
2021/11/12 02:50:44;;;;;;;;;;;15.90;41.00;;;;;;8362782;28;19916;-48
2021/11/12 02:54:46;;;;;;;;;;;15.90;41.00;;;;;;8362994;28;19921;-52
2021/11/12 02:58:49;;;;;;;;;;;15.90;41.00;;;;;;8362986;28;20012;-48
2021/11/12 03:02:50;;;;;;;;;;;15.90;41.00;;;;;;8365219;28;19923;-47
2021/11/12 03:06:52;;;;;;;;;;;15.90;41.00;;;;;;8369070;28;19928;-47
2021/11/12 03:10:58;;;;;;;;;;;15.90;41.00;;;;;;8368761;28;19921;-48
2021/11/12 03:14:59;;;;;;;;;;;15.90;41.10;;;;;;8368262;28;19924;-47
2021/11/12 03:19:00;;;;;;;;;;;15.90;41.10;;;;;;8368780;28;19956;-47
2021/11/12 03:23:05;;;;;;;;;;;15.80;41.10;;;;;;8368419;28;20397;-48
2021/11/12 03:27:22;;;;;;;;;;;15.80;41.10;;;;;;8368461;28;19986;-51
2021/11/12 04:18:28;;;;;;;;;;;15.70;41.20;;;;;;8366881;28;19951;-53
2021/11/12 05:10:05;;;;;;;;;;;15.70;41.10;;;;;;8353037;28;19977;-49
2021/11/12 05:44:20;;;;;;;;;;;15.70;41.10;;;;;;8365393;28;19999;-49
2021/11/12 05:56:59;;;;;;;;;;;15.80;41.10;;;;;;8364162;28;19928;-49
2021/11/12 06:00:59;;;;;;;;;;;15.70;41.10;;;;;;8363396;28;20422;-49
2021/11/12 06:05:00;;;;;;;;;;;15.70;41.10;;;;;;8363418;28;20008;-49
2021/11/12 06:09:03;;;;;;;;;;;15.80;41.10;;;;;;8363124;28;20301;-48
2021/11/12 06:13:04;;;;;;;;;;;15.70;41.00;;;;;;8364082;28;20429;-49
2021/11/12 06:17:04;;;;;;;;;;;15.70;41.10;;;;;;8363483;28;19917;-48
2021/11/12 06:21:05;;;;;;;;;;;15.70;41.10;;;;;;8363003;28;19917;-48
2021/11/12 06:25:06;;;;;;;;;;;15.70;41.10;;;;;;8363704;28;19960;-47
2021/11/12 06:29:06;;;;;;;;;;;15.70;41.10;;;;;;8363264;28;19921;-47
2021/11/12 06:33:07;;;;;;;;;;;15.70;41.10;;;;;;8363253;28;19917;-51
2021/11/12 06:37:07;;;;;;;;;;;15.70;41.10;;;;;;8366794;28;19940;-48
2021/11/12 06:41:11;;;;;;;;;;;15.70;41.10;;;;;;8369880;28;20381;-49
2021/11/12 06:49:29;;;;;;;;;;;15.70;41.10;;;;;;8374114;28;20374;-47
2021/11/12 06:53:31;;;;;;;;;;;15.70;41.10;;;;;;8371211;28;20439;-47
2021/11/12 06:57:31;;;;;;;;;;;15.70;41.10;;;;;;8369884;28;19920;-47
2021/11/12 07:01:32;;;;;;;;;;;15.70;41.10;;;;;;8368935;28;19916;-49
2021/11/12 07:05:32;;;;;;;;;;;15.70;41.10;;;;;;8368415;28;19913;-48
2021/11/12 07:09:33;;;;;;;;;;;15.70;41.10;;;;;;8368575;28;19921;-49
2021/11/12 07:13:33;;;;;;;;;;;15.70;41.10;;;;;;8368609;28;19920;-48
2021/11/12 07:17:34;;;;;;;;;;;15.80;41.10;;;;;;8367932;28;19939;-50
2021/11/12 07:21:34;;;;;;;;;;;15.80;41.10;;;;;;8368514;28;20354;-48
2021/11/12 07:25:35;;;;;;;;;;;15.80;41.10;;;;;;8368175;28;20081;-51
2021/11/12 07:29:38;;;;;;;;;;;15.80;41.10;;;;;;8367533;28;19921;-51
2021/11/12 07:33:39;;;;;;;;;;;15.80;41.10;;;;;;8368375;28;19948;-51
2021/11/12 07:37:40;;;;;;;;;;;15.80;41.10;;;;;;8367884;28;20341;-52
2021/11/12 07:42:06;;;;;;;;;;;15.80;41.10;;;;;;8367434;28;19924;-52
2021/11/12 07:50:08;;;;;;;;;;;15.80;41.10;;;;;;8366847;28;19941;-51
2021/11/12 07:54:09;;;;;;;;;;;15.80;41.10;;;;;;8366829;28;19917;-48
2021/11/12 07:58:09;;;;;;;;;;;15.80;41.10;;;;;;8367549;28;20383;-48
2021/11/12 08:02:12;;;;;;;;;;;15.80;41.10;;;;;;8367226;28;19917;-49
2021/11/12 08:06:16;;;;;;;;;;;15.80;41.10;;;;;;8366506;28;19924;-48
2021/11/12 08:10:19;;;;;;;;;;;15.80;41.10;;;;;;8365641;28;19920;-50
2021/11/12 08:18:34;;;;;;;;;;;15.80;41.20;;;;;;8367144;28;19913;-47
2021/11/12 08:22:49;;;;;;;;;;;15.80;41.20;;;;;;8371056;28;19923;-46
2021/11/12 08:27:50;;;;;;;;;;;15.80;41.20;;;;;;8365995;28;19932;-50
2021/11/12 08:43:53;;;;;;;;;;;15.80;41.20;;;;;;8365966;28;19923;-48
2021/11/12 08:47:59;;;;;;;;;;;15.80;41.20;;;;;;8364951;28;19925;-48
2021/11/12 08:52:00;;;;;;;;;;;15.80;41.20;;;;;;8365761;28;19917;-48
2021/11/12 08:56:01;;;;;;;;;;;15.80;41.20;;;;;;8365291;28;19970;-48
2021/11/12 09:00:04;;;;;;;;;;;15.80;41.20;;;;;;8363877;28;19917;-48
2021/11/12 09:04:04;;;;;;;;;;;15.80;41.20;;;;;;8365347;28;19940;-49
2021/11/12 09:08:05;;;;;;;;;;;15.80;41.20;;;;;;8364967;28;19925;-48
2021/11/12 09:12:09;;;;;;;;;;;15.80;41.20;;;;;;8364417;28;19916;-48
2021/11/12 09:16:13;;;;;;;;;;;15.80;41.20;;;;;;8365141;28;19916;-49
2021/11/12 09:20:14;;;;;;;;;;;15.80;41.20;;;;;;8364598;28;20374;-53
2021/11/12 09:24:14;;;;;;;;;;;15.90;41.20;;;;;;8364388;28;19912;-50
2021/11/12 09:28:15;;;;;;;;;;;15.90;41.20;;;;;;8364572;28;19986;-50
2021/11/12 09:32:15;;;;;;;;;;;15.90;41.20;;;;;;8364366;28;19916;-50
2021/11/12 09:36:16;;;;;;;;;;;15.90;41.20;;;;;;8363909;28;19917;-47
2021/11/12 09:40:17;;;;;;;;;;;15.80;41.10;;;;;;8364058;28;19923;-48
2021/11/12 09:44:18;;;;;;;;;;;15.90;41.20;;;;;;8364365;28;19917;-47
2021/11/12 09:48:19;;;;;;;;;;;15.90;41.20;;;;;;8363422;28;20396;-48
2021/11/12 09:52:20;;;;;;;;;;;15.90;41.20;;;;;;8364192;28;20292;-49
2021/11/12 09:56:21;;;;;;;;;;;15.90;41.20;;;;;;8363607;28;19925;-47
2021/11/12 10:00:24;;;;;;;;;;;15.90;41.20;;;;;;8363922;28;19917;-49
2021/11/12 10:04:24;;;;;;;;;;;15.90;41.20;;;;;;8364364;28;19987;-48
2021/11/12 10:08:33;;;;;;;;;;;15.90;41.20;;;;;;8363080;28;19950;-47
2021/11/12 10:12:35;;;;;;;;;;;15.90;41.20;;;;;;8371476;28;20039;-48
2021/11/12 10:16:36;;;;;;;;;;;15.90;41.20;;;;;;8374798;28;19917;-48
2021/11/12 10:20:37;;;;;;;;;;;15.90;41.30;;;;;;8374082;28;19923;-48
2021/11/12 10:24:38;;;;;;;;;;;15.90;41.30;;;;;;8374711;28;19916;-49
2021/11/12 10:28:40;;;;;;;;;;;15.90;41.20;;;;;;8374509;28;19925;-49
2021/11/12 10:32:42;;;;;;;;;;;15.90;41.20;;;;;;8373753;28;19917;-49
2021/11/12 10:37:02;;;;;;;;;;;15.90;41.20;;;;;;8374430;28;19924;-48
2021/11/12 10:41:13;;;;;;;;;;;15.90;41.30;;;;;;8374285;28;19952;-49
2021/11/12 10:45:15;;;;;;;;;;;15.90;41.20;;;;;;8373686;28;19928;-48
2021/11/12 10:49:37;;;;;;;;;;;16.00;41.20;;;;;;8374413;28;20008;-49
2021/11/12 10:53:44;;;;;;;;;;;16.00;41.30;;;;;;8373423;28;19939;-49
2021/11/12 10:57:59;;;;;;;;;;;16.00;41.20;;;;;;8373851;28;19925;-47
2021/11/12 11:01:59;;;;;;;;;;;16.00;41.20;;;;;;8374051;28;19974;-48
2021/11/12 11:06:02;;;;;;;;;;;16.00;41.20;;;;;;8371778;28;20378;-49
2021/11/12 11:10:04;;;;;;;;;;;16.00;41.20;;;;;;8374042;28;20425;-48
2021/11/12 11:14:05;;;;;;;;;;;16.00;41.20;;;;;;8373691;28;19970;-50
2021/11/12 11:18:18;;;;;;;;;;;16.00;41.30;;;;;;8373139;28;20293;-49
2021/11/12 11:22:18;;;;;;;;;;;16.00;41.20;;;;;;8376926;28;19943;-51
2021/11/12 11:26:20;;;;;;;;;;;16.00;41.30;;;;;;8367060;28;19928;-49
2021/11/12 11:30:21;;;;;;;;;;;16.00;41.30;;;;;;8343336;28;19978;-49
2021/11/12 11:34:23;;;;;;;;;;;16.00;41.30;;;;;;8368260;28;19920;-49
2021/11/12 11:38:26;;;;;;;;;;;16.00;41.30;;;;;;8367580;28;19913;-49
2021/11/12 11:42:27;;;;;;;;;;;16.00;41.30;;;;;;8367828;28;19924;-49
2021/11/12 11:46:29;;;;;;;;;;;16.10;41.30;;;;;;8368127;28;19921;-49
2021/11/12 11:50:31;;;;;;;;;;;16.00;41.30;;;;;;8367143;28;19970;-49
2021/11/12 11:54:35;;;;;;;;;;;16.00;41.30;;;;;;8367564;28;19928;-48
2021/11/12 11:58:39;;;;;;;;;;;16.00;41.40;;;;;;8367667;28;19970;-49
2021/11/12 12:02:41;;;;;;;;;;;16.00;41.40;;;;;;8366924;28;19947;-49
2021/11/12 12:06:42;;;;;;;;;;;16.00;41.40;;;;;;8367429;28;20011;-51
2021/11/12 12:10:43;;;;;;;;;;;16.10;41.40;;;;;;8367205;28;19920;-50
2021/11/12 12:14:43;;;;;;;;;;;16.10;41.40;;;;;;8366732;28;20401;-49
2021/11/12 12:18:45;;;;;;;;;;;16.00;41.30;;;;;;8367058;28;20046;-49
2021/11/12 12:35:56;;;;;;;;;;;16.10;41.40;;;;;;8366010;28;19959;-50
2021/11/12 13:20:02;;;;;;;;;;;16.10;41.50;;;;;;8364989;28;19943;-47
2021/11/12 13:24:17;;;;;;;;;;;16.10;41.50;;;;;;8364176;28;20277;-47
2021/11/12 13:28:22;;;;;;;;;;;16.10;41.50;;;;;;8367221;28;19925;-47
2021/11/12 13:32:23;;;;;;;;;;;16.10;41.50;;;;;;8364199;28;20317;-47
2021/11/12 13:36:35;;;;;;;;;;;16.10;41.50;;;;;;8364573;28;20065;-48
2021/11/12 13:40:35;;;;;;;;;;;16.10;41.50;;;;;;8362187;28;19917;-48
2021/11/12 13:44:38;;;;;;;;;;;16.10;41.50;;;;;;8363546;28;19917;-48
2021/11/12 13:48:52;;;;;;;;;;;16.10;41.50;;;;;;8359204;28;19975;-50
2021/11/12 13:52:53;;;;;;;;;;;16.10;41.60;;;;;;8353534;28;19924;-49
2021/11/12 13:56:53;;;;;;;;;;;16.10;41.50;;;;;;8363401;28;19925;-48
2021/11/12 14:00:54;;;;;;;;;;;16.10;41.60;;;;;;8362986;28;20369;-49
2021/11/12 14:05:12;;;;;;;;;;;16.10;41.60;;;;;;8358533;28;19916;-52
2021/11/12 14:09:17;;;;;;;;;;;16.10;41.60;;;;;;8357639;28;19929;-48
2021/11/12 14:13:20;;;;;;;;;;;16.10;41.60;;;;;;8353137;28;20286;-48
2021/11/12 14:17:25;;;;;;;;;;;16.10;41.60;;;;;;8362471;28;19924;-48
2021/11/12 14:21:34;;;;;;;;;;;16.10;41.60;;;;;;8363973;28;19920;-49
2021/11/12 14:34:08;;;;;;;;;;;16.20;41.70;;;;;;8349732;28;19917;-50
2021/11/12 14:38:22;;;;;;;;;;;16.10;41.60;;;;;;8361781;28;20369;-49
2021/11/12 14:46:35;;;;;;;;;;;16.10;41.70;;;;;;8361505;28;19978;-50
2021/11/12 14:50:42;;;;;;;;;;;16.20;41.70;;;;;;8362461;28;19970;-49
2021/11/12 14:54:52;;;;;;;;;;;16.20;41.70;;;;;;8366513;28;19924;-49
2021/11/12 14:59:00;;;;;;;;;;;16.20;41.70;;;;;;8363897;28;19921;-47
2021/11/12 15:03:00;;;;;;;;;;;16.10;41.70;;;;;;8365751;28;20378;-48
2021/11/12 15:07:01;;;;;;;;;;;16.10;41.70;;;;;;8368745;28;19921;-48
2021/11/12 15:11:03;;;;;;;;;;;16.10;41.70;;;;;;8369061;28;19935;-48
2021/11/12 15:15:04;;;;;;;;;;;16.10;41.70;;;;;;8367022;28;19948;-50
2021/11/12 15:19:06;;;;;;;;;;;16.10;41.70;;;;;;8376072;28;19917;-48
2021/11/12 15:23:32;;;;;;;;;;;16.20;41.70;;;;;;8371177;28;19917;-49
2021/11/12 15:27:45;;;;;;;;;;;16.10;41.80;;;;;;8340233;28;19925;-52
2021/11/12 15:36:08;;;;;;;;;;;16.10;41.70;;;;;;8359298;28;19920;-51
2021/11/12 15:40:16;;;;;;;;;;;16.10;41.70;;;;;;8367923;28;19923;-48
2021/11/12 15:44:22;;;;;;;;;;;16.20;41.80;;;;;;8368630;28;20344;-51
2021/11/12 15:48:25;;;;;;;;;;;16.20;41.80;;;;;;8367009;28;19925;-48
2021/11/12 15:53:14;;;;;;;;;;;16.10;41.80;;;;;;8367572;28;19924;-53
2021/11/12 16:10:18;;;;;;;;;;;16.10;41.80;;;;;;8369097;28;19932;-49
2021/11/12 16:18:56;;;;;;;;;;;16.10;41.80;;;;;;8363594;28;19917;-52
2021/11/12 16:23:15;;;;;;;;;;;16.20;41.90;;;;;;8355630;28;19939;-56
2021/11/12 16:26:57;;;;;;;;;;;16.10;41.90;;;;;;8363704;28;19932;-47
2021/11/12 16:31:01;;;;;;;;;;;16.10;41.90;;;;;;8365282;28;19927;-49
2021/11/12 16:35:02;;;;;;;;;;;16.10;41.90;;;;;;8366090;28;19913;-48
2021/11/12 16:39:05;;;;;;;;;;;16.10;41.90;;;;;;8365879;28;19924;-52
2021/11/12 16:47:26;;;;;;;;;;;16.10;41.90;;;;;;8369436;28;19925;-49
2021/11/12 17:00:00;;;;;;;;;;;16.10;42.00;;;;;;8365230;28;19923;-48
2021/11/12 17:04:12;;;;;;;;;;;16.10;41.90;;;;;;8370493;28;19921;-49
2021/11/12 17:21:14;;;;;;;;;;;16.20;42.00;;;;;;8363977;28;19916;-53
2021/11/12 17:47:07;;;;;;;;;;;16.10;42.00;;;;;;8331870;28;19975;-47
2021/11/12 18:04:26;;;;;;;;;;;16.10;42.00;;;;;;8368618;28;19986;-46
2021/11/12 21:47:16;;;;;;;;;;;16.10;42.00;;;;;;8364541;28;20386;-49
2021/11/12 21:51:28;;;;;;;;;;;16.10;42.00;;;;;;8363634;28;19955;-48
2021/11/12 21:55:29;;;;;;;;;;;16.20;42.50;;;;;;8364039;28;19921;-48
2021/11/12 21:59:29;;;;;;;;;;;16.10;42.00;;;;;;8363672;28;20362;-47
2021/11/12 22:03:30;;;;;;;;;;;16.10;42.00;;;;;;8363916;28;20377;-48
2021/11/12 22:07:31;;;;;;;;;;;16.10;42.00;;;;;;8363174;28;20345;-48
2021/11/12 22:11:31;;;;;;;;;;;16.10;42.00;;;;;;8363636;28;19959;-49
2021/11/12 22:15:32;;;;;;;;;;;16.10;42.00;;;;;;8363430;28;19987;-49
2021/11/12 22:19:32;;;;;;;;;;;16.10;42.00;;;;;;8363819;28;20332;-48
2021/11/12 22:23:33;;;;;;;;;;;16.10;42.00;;;;;;8362947;28;19917;-49
2021/11/12 22:27:33;;;;;;;;;;;16.10;42.00;;;;;;8363461;28;19972;-53
2021/11/12 22:31:34;;;;;;;;;;;16.10;42.00;;;;;;8363047;28;19913;-49
2021/11/12 22:35:36;;;;;;;;;;;16.20;42.00;;;;;;8362966;28;20300;-49
2021/11/12 22:39:37;;;;;;;;;;;16.10;42.00;;;;;;8363734;28;19912;-50
2021/11/12 22:43:38;;;;;;;;;;;16.10;42.00;;;;;;8363255;28;19916;-48
2021/11/12 22:47:38;;;;;;;;;;;16.10;42.00;;;;;;8362845;28;19921;-49
2021/11/12 22:51:39;;;;;;;;;;;16.20;42.00;;;;;;8363156;28;19917;-48
2021/11/12 22:55:40;;;;;;;;;;;16.10;42.00;;;;;;8363295;28;19927;-50
2021/11/12 22:59:41;;;;;;;;;;;16.10;42.00;;;;;;8362820;28;19935;-51
2021/11/12 23:03:42;;;;;;;;;;;16.10;42.00;;;;;;8334070;28;19917;-48
2021/11/12 23:07:42;;;;;;;;;;;16.20;42.00;;;;;;8329944;28;19925;-48
2021/11/12 23:11:43;;;;;;;;;;;16.10;42.00;;;;;;8343740;28;19952;-53
2021/11/12 23:15:44;;;;;;;;;;;16.10;42.00;;;;;;8363061;28;19917;-48
2021/11/12 23:19:45;;;;;;;;;;;16.10;42.00;;;;;;8365854;28;19913;-49
2021/11/12 23:23:47;;;;;;;;;;;16.10;42.00;;;;;;8368054;28;19923;-49
2021/11/12 23:27:48;;;;;;;;;;;16.10;42.00;;;;;;8368954;28;20424;-49
2021/11/12 23:31:48;;;;;;;;;;;16.20;42.00;;;;;;8368714;28;19964;-57
2021/11/12 23:35:49;;;;;;;;;;;16.10;42.00;;;;;;8367971;28;19949;-49
2021/11/12 23:39:49;;;;;;;;;;;16.10;42.00;;;;;;8368387;28;19912;-54
2021/11/12 23:43:50;;;;;;;;;;;16.10;42.00;;;;;;8368128;28;20078;-53
2021/11/12 23:47:51;;;;;;;;;;;16.10;42.00;;;;;;8367274;28;19925;-51
2021/11/12 23:51:51;;;;;;;;;;;16.10;42.00;;;;;;8367972;28;19916;-50
2021/11/12 23:55:52;;;;;;;;;;;16.10;42.00;;;;;;8368184;28;19924;-49
2021/11/12 23:59:52;;;;;;;;;;;16.10;42.00;;;;;;8367534;28;19927;-53
